createdAt,value
2019-05-15T00:00:55.024Z,5.36
2019-05-15T00:01:55.069Z,5.38
2019-05-15T00:02:55.099Z,5.30
2019-05-15T00:03:55.134Z,5.30
2019-05-15T00:04:55.174Z,5.22
2019-05-15T00:05:55.209Z,5.24
2019-05-15T00:06:55.250Z,5.25
2019-05-15T00:07:55.283Z,5.22
2019-05-15T00:08:55.321Z,5.21
2019-05-15T00:09:55.368Z,5.22
2019-05-15T00:10:55.450Z,5.15
2019-05-15T00:11:55.437Z,5.18
2019-05-15T00:12:57.951Z,5.22
2019-05-15T00:13:55.508Z,5.15
2019-05-15T00:14:57.997Z,5.15
2019-05-15T00:15:55.583Z,5.09
2019-05-15T00:16:55.621Z,5.00
2019-05-15T00:17:57.803Z,5.10
2019-05-15T00:18:55.696Z,5.02
2019-05-15T00:19:58.068Z,5.02
2019-05-15T00:20:55.770Z,5.06
2019-05-15T00:21:55.808Z,5.02
2019-05-15T00:22:55.846Z,5.02
2019-05-15T00:23:55.885Z,4.89
2019-05-15T00:24:58.053Z,4.97
2019-05-15T00:25:58.273Z,4.89
2019-05-15T00:26:56.000Z,4.92
2019-05-15T00:27:58.168Z,4.89
2019-05-15T00:29:09.572Z,4.88
2019-05-15T00:29:57.931Z,4.86
2019-05-15T00:30:58.088Z,4.89
2019-05-15T00:31:58.765Z,4.75
2019-05-15T00:32:56.219Z,4.82
2019-05-15T00:33:56.264Z,4.78
2019-05-15T00:34:58.225Z,4.66
2019-05-15T00:35:56.331Z,4.73
2019-05-15T00:36:58.381Z,4.66
2019-05-15T00:37:58.433Z,4.75
2019-05-15T00:38:56.448Z,4.70
2019-05-15T00:39:56.477Z,4.72
2019-05-15T00:40:58.439Z,4.72
2019-05-15T00:41:58.867Z,4.70
2019-05-15T00:42:57.919Z,4.58
2019-05-15T00:43:58.497Z,4.54
2019-05-15T00:44:58.450Z,4.59
2019-05-15T00:45:58.615Z,4.62
2019-05-15T00:46:58.243Z,4.52
2019-05-15T00:47:57.938Z,4.51
2019-05-15T00:48:59.015Z,4.51
2019-05-15T00:49:58.101Z,4.52
2019-05-15T00:50:58.881Z,4.51
2019-05-15T00:51:59.023Z,4.50
2019-05-15T00:52:58.896Z,4.47
2019-05-15T00:53:58.926Z,4.41
2019-05-15T00:54:58.957Z,4.45
2019-05-15T00:55:58.069Z,4.44
2019-05-15T00:56:57.928Z,4.44
2019-05-15T00:57:58.975Z,4.37
2019-05-15T00:58:58.834Z,4.48
2019-05-15T00:59:58.979Z,4.36
2019-05-15T01:00:59.185Z,4.36
2019-05-15T01:01:59.490Z,4.33
2019-05-15T01:02:57.841Z,4.27
2019-05-15T01:03:58.584Z,4.24
2019-05-15T01:04:58.546Z,4.30
2019-05-15T01:05:58.613Z,4.29
2019-05-15T01:06:58.900Z,4.18
2019-05-15T01:07:58.639Z,4.16
2019-05-15T01:08:58.881Z,4.11
2019-05-15T01:09:58.002Z,4.06
2019-05-15T01:10:58.243Z,4.11
2019-05-15T01:11:58.708Z,4.08
2019-05-15T01:12:58.404Z,4.06
2019-05-15T01:13:58.492Z,4.11
2019-05-15T01:14:58.348Z,4.09
2019-05-15T01:15:58.315Z,4.06
2019-05-15T01:16:58.306Z,4.02
2019-05-15T01:17:58.318Z,4.05
2019-05-15T01:18:58.572Z,3.98
2019-05-15T01:19:58.815Z,4.02
2019-05-15T01:20:58.622Z,4.00
2019-05-15T01:21:58.724Z,3.98
2019-05-15T01:22:59.178Z,4.14
2019-05-15T01:23:58.926Z,4.00
2019-05-15T01:24:59.005Z,3.97
2019-05-15T01:25:58.839Z,3.97
2019-05-15T01:26:58.554Z,4.02
2019-05-15T01:27:58.412Z,4.02
2019-05-15T01:28:58.493Z,4.02
2019-05-15T01:29:58.336Z,4.05
2019-05-15T01:30:59.196Z,3.98
2019-05-15T01:31:59.253Z,4.02
2019-05-15T01:32:59.188Z,3.97
2019-05-15T01:33:58.513Z,3.90
2019-05-15T01:34:58.510Z,3.96
2019-05-15T01:35:59.015Z,3.97
2019-05-15T01:36:59.182Z,4.00
2019-05-15T01:37:58.703Z,3.93
2019-05-15T01:38:58.658Z,3.94
2019-05-15T01:39:58.695Z,3.84
2019-05-15T01:40:59.239Z,3.84
2019-05-15T01:41:58.767Z,3.86
2019-05-15T01:42:58.804Z,3.90
2019-05-15T01:43:58.843Z,3.83
2019-05-15T01:44:59.061Z,3.83
2019-05-15T01:45:59.037Z,3.86
2019-05-15T01:46:59.158Z,3.80
2019-05-15T01:47:59.037Z,3.83
2019-05-15T01:48:59.027Z,3.79
2019-05-15T01:49:59.062Z,3.86
2019-05-15T01:50:59.097Z,3.70
2019-05-15T01:51:59.138Z,3.84
2019-05-15T01:52:59.172Z,3.83
2019-05-15T01:53:59.209Z,3.70
2019-05-15T01:54:59.247Z,3.78
2019-05-15T01:55:59.283Z,3.72
2019-05-15T01:56:59.320Z,3.66
2019-05-15T01:57:59.355Z,3.70
2019-05-15T01:58:59.403Z,3.68
2019-05-15T02:00:00.853Z,3.68
2019-05-15T02:00:59.465Z,3.68
2019-05-15T02:01:59.603Z,3.57
2019-05-15T02:02:59.537Z,3.57
2019-05-15T02:03:59.577Z,3.54
2019-05-15T02:04:59.614Z,3.57
2019-05-15T02:05:59.649Z,3.52
2019-05-15T02:06:59.685Z,3.48
2019-05-15T02:07:59.725Z,3.45
2019-05-15T02:08:59.758Z,3.36
2019-05-15T02:09:59.798Z,3.42
2019-05-15T02:10:59.831Z,3.33
2019-05-15T02:11:59.870Z,3.31
2019-05-15T02:12:59.912Z,3.26
2019-05-15T02:13:59.941Z,3.17
2019-05-15T02:14:59.976Z,3.18
2019-05-15T02:16:00.023Z,3.26
2019-05-15T02:17:00.057Z,3.23
2019-05-15T02:18:00.087Z,3.15
2019-05-15T02:19:00.122Z,3.18
2019-05-15T02:20:00.159Z,3.18
2019-05-15T02:21:00.196Z,3.03
2019-05-15T02:22:00.232Z,3.08
2019-05-15T02:23:00.277Z,3.05
2019-05-15T02:24:00.306Z,3.03
2019-05-15T02:25:00.343Z,3.11
2019-05-15T02:26:00.389Z,3.02
2019-05-15T02:27:00.416Z,3.05
2019-05-15T02:28:00.553Z,3.03
2019-05-15T02:29:00.488Z,2.84
2019-05-15T02:30:15.941Z,2.87
2019-05-15T02:31:00.560Z,2.95
2019-05-15T02:32:00.598Z,2.93
2019-05-15T02:33:00.636Z,2.92
2019-05-15T02:34:00.670Z,2.89
2019-05-15T02:35:00.708Z,2.87
2019-05-15T02:36:00.754Z,2.85
2019-05-15T02:37:00.823Z,2.81
2019-05-15T02:38:00.819Z,2.82
2019-05-15T02:39:00.851Z,2.75
2019-05-15T02:40:00.891Z,2.69
2019-05-15T02:41:00.935Z,2.72
2019-05-15T02:42:00.963Z,2.71
2019-05-15T02:43:00.995Z,2.69
2019-05-15T02:44:01.035Z,2.60
2019-05-15T02:45:01.099Z,2.64
2019-05-15T02:46:01.110Z,2.53
2019-05-15T02:47:01.141Z,2.45
2019-05-15T02:48:01.177Z,2.48
2019-05-15T02:49:01.219Z,2.43
2019-05-15T02:50:01.250Z,2.41
2019-05-15T02:51:01.292Z,2.35
2019-05-15T02:52:01.322Z,2.23
2019-05-15T02:53:01.359Z,2.34
2019-05-15T02:54:01.399Z,2.24
2019-05-15T02:55:01.441Z,2.35
2019-05-15T02:56:01.470Z,2.30
2019-05-15T02:57:01.522Z,2.36
2019-05-15T02:58:01.542Z,2.35
2019-05-15T02:59:01.581Z,2.35
2019-05-15T03:00:01.617Z,2.43
2019-05-15T03:01:01.653Z,2.41
2019-05-15T03:02:01.685Z,2.30
2019-05-15T03:03:01.736Z,2.31
2019-05-15T03:04:01.767Z,2.24
2019-05-15T03:05:01.795Z,2.31
2019-05-15T03:06:01.830Z,2.24
2019-05-15T03:07:01.867Z,2.23
2019-05-15T03:08:01.901Z,2.31
2019-05-15T03:09:01.937Z,2.14
2019-05-15T03:10:01.975Z,2.18
2019-05-15T03:11:02.028Z,2.23
2019-05-15T03:12:02.059Z,2.31
2019-05-15T03:13:02.091Z,2.27
2019-05-15T03:14:02.118Z,2.27
2019-05-15T03:15:02.157Z,2.12
2019-05-15T03:16:02.189Z,2.28
2019-05-15T03:17:02.227Z,2.31
2019-05-15T03:18:02.262Z,2.27
2019-05-15T03:19:02.298Z,2.30
2019-05-15T03:20:02.334Z,2.34
2019-05-15T03:21:02.370Z,2.27
2019-05-15T03:22:02.406Z,2.21
2019-05-15T03:23:02.441Z,2.27
2019-05-15T03:24:02.483Z,2.25
2019-05-15T03:25:02.512Z,2.21
2019-05-15T03:26:04.341Z,2.12
2019-05-15T03:27:02.606Z,2.25
2019-05-15T03:28:02.623Z,2.18
2019-05-15T03:29:02.656Z,2.12
2019-05-15T03:30:02.703Z,2.28
2019-05-15T03:31:22.589Z,2.27
2019-05-15T03:32:18.166Z,2.20
2019-05-15T03:33:09.933Z,2.20
2019-05-15T03:34:04.002Z,2.18
2019-05-15T03:35:05.363Z,2.16
2019-05-15T03:36:03.651Z,2.27
2019-05-15T03:37:04.100Z,2.18
2019-05-15T03:38:02.998Z,2.25
2019-05-15T03:39:03.016Z,2.16
2019-05-15T03:40:03.056Z,2.18
2019-05-15T03:41:03.092Z,2.18
2019-05-15T03:42:03.127Z,2.25
2019-05-15T03:43:03.163Z,2.38
2019-05-15T03:44:03.207Z,2.24
2019-05-15T03:45:03.237Z,2.25
2019-05-15T03:46:03.276Z,2.24
2019-05-15T03:47:03.308Z,2.27
2019-05-15T03:48:03.347Z,2.21
2019-05-15T03:49:03.382Z,2.16
2019-05-15T03:50:03.423Z,2.23
2019-05-15T03:51:03.452Z,2.18
2019-05-15T03:52:03.492Z,2.18
2019-05-15T03:53:03.530Z,2.20
2019-05-15T03:54:03.561Z,2.27
2019-05-15T03:55:03.596Z,2.17
2019-05-15T03:56:03.633Z,2.31
2019-05-15T03:57:03.665Z,2.28
2019-05-15T03:58:03.700Z,2.36
2019-05-15T03:59:03.739Z,2.23
2019-05-15T04:00:03.774Z,2.24
2019-05-15T04:01:03.810Z,2.27
2019-05-15T04:02:03.849Z,2.27
2019-05-15T04:03:03.889Z,2.25
2019-05-15T04:04:03.924Z,2.28
2019-05-15T04:05:03.954Z,2.36
2019-05-15T04:06:03.990Z,2.27
2019-05-15T04:07:04.033Z,2.38
2019-05-15T04:08:04.063Z,2.34
2019-05-15T04:09:04.097Z,2.28
2019-05-15T04:10:04.134Z,2.28
2019-05-15T04:11:04.170Z,2.38
2019-05-15T04:12:04.205Z,2.35
2019-05-15T04:13:04.242Z,2.35
2019-05-15T04:14:04.279Z,2.30
2019-05-15T04:15:04.314Z,2.43
2019-05-15T04:16:04.358Z,2.48
2019-05-15T04:17:04.387Z,2.46
2019-05-15T04:18:04.424Z,2.60
2019-05-15T04:19:04.466Z,2.63
2019-05-15T04:20:04.494Z,2.63
2019-05-15T04:21:04.540Z,2.64
2019-05-15T04:22:04.569Z,2.67
2019-05-15T04:23:04.603Z,2.72
2019-05-15T04:24:04.639Z,2.82
2019-05-15T04:25:04.676Z,2.95
2019-05-15T04:26:04.711Z,2.96
2019-05-15T04:27:07.217Z,2.93
2019-05-15T04:28:04.783Z,2.96
2019-05-15T04:29:04.821Z,2.96
2019-05-15T04:30:04.853Z,2.99
2019-05-15T04:31:04.890Z,3.10
2019-05-15T04:32:06.100Z,3.05
2019-05-15T04:33:04.962Z,3.03
2019-05-15T04:34:05.061Z,3.10
2019-05-15T04:35:05.035Z,3.10
2019-05-15T04:36:05.079Z,3.14
2019-05-15T04:37:05.106Z,3.28
2019-05-15T04:38:05.149Z,3.13
2019-05-15T04:39:05.183Z,3.18
2019-05-15T04:40:05.217Z,3.13
2019-05-15T04:41:05.260Z,3.03
2019-05-15T04:42:08.096Z,3.03
2019-05-15T04:43:05.325Z,3.02
2019-05-15T04:44:05.370Z,3.13
2019-05-15T04:45:05.398Z,3.08
2019-05-15T04:46:05.436Z,3.08
2019-05-15T04:47:05.472Z,3.08
2019-05-15T04:48:05.511Z,2.99
2019-05-15T04:49:09.026Z,3.11
2019-05-15T04:50:08.620Z,3.20
2019-05-15T04:51:05.624Z,3.28
2019-05-15T04:52:05.652Z,3.39
2019-05-15T04:53:05.702Z,3.33
2019-05-15T04:54:05.728Z,3.47
2019-05-15T04:55:09.690Z,3.42
2019-05-15T04:56:09.196Z,3.47
2019-05-15T04:57:09.015Z,3.55
2019-05-15T04:58:05.874Z,3.65
2019-05-15T04:59:05.915Z,3.68
2019-05-15T05:00:09.190Z,3.79
2019-05-15T05:01:09.105Z,3.83
2019-05-15T05:02:24.153Z,3.78
2019-05-15T05:03:06.050Z,3.83
2019-05-15T05:04:06.085Z,3.96
2019-05-15T05:05:09.691Z,3.94
2019-05-15T05:06:09.415Z,3.97
2019-05-15T05:07:09.205Z,4.08
2019-05-15T05:08:09.097Z,4.02
2019-05-15T05:09:08.919Z,4.04
2019-05-15T05:10:09.182Z,4.12
2019-05-15T05:11:09.425Z,4.05
2019-05-15T05:12:08.551Z,4.16
2019-05-15T05:13:08.782Z,4.12
2019-05-15T05:14:08.553Z,4.11
2019-05-15T05:15:08.461Z,4.24
2019-05-15T05:16:09.234Z,4.22
2019-05-15T05:17:09.084Z,4.30
2019-05-15T05:18:09.522Z,4.40
2019-05-15T05:19:08.936Z,4.40
2019-05-15T05:20:08.086Z,4.48
2019-05-15T05:21:07.757Z,4.44
2019-05-15T05:22:07.817Z,4.42
2019-05-15T05:23:08.562Z,4.50
2019-05-15T05:24:08.068Z,4.54
2019-05-15T05:25:08.130Z,4.55
2019-05-15T05:26:10.863Z,4.52
2019-05-15T05:27:08.757Z,4.58
2019-05-15T05:28:08.750Z,4.65
2019-05-15T05:29:08.513Z,4.67
2019-05-15T05:30:08.441Z,4.77
2019-05-15T05:31:08.435Z,4.82
2019-05-15T05:32:09.112Z,4.94
2019-05-15T05:33:08.512Z,4.97
2019-05-15T05:34:08.272Z,5.02
2019-05-15T05:35:08.457Z,5.09
2019-05-15T05:36:07.946Z,5.12
2019-05-15T05:37:07.811Z,5.06
2019-05-15T05:38:07.844Z,5.21
2019-05-15T05:39:09.606Z,5.22
2019-05-15T05:40:08.051Z,5.36
2019-05-15T05:41:08.129Z,5.46
2019-05-15T05:42:07.935Z,5.58
2019-05-15T05:43:09.485Z,5.56
2019-05-15T05:44:08.171Z,5.65
2019-05-15T05:45:09.224Z,5.85
2019-05-15T05:46:09.173Z,5.99
2019-05-15T05:47:09.272Z,5.99
2019-05-15T05:48:08.851Z,6.11
2019-05-15T05:49:08.146Z,6.12
2019-05-15T05:50:08.050Z,6.21
2019-05-15T05:51:09.291Z,6.19
2019-05-15T05:52:08.439Z,6.22
2019-05-15T05:53:08.830Z,6.36
2019-05-15T05:54:08.432Z,6.36
2019-05-15T05:55:08.732Z,6.43
2019-05-15T05:56:08.966Z,6.51
2019-05-15T05:57:09.075Z,6.54
2019-05-15T05:58:08.237Z,6.56
2019-05-15T05:59:09.399Z,6.59
2019-05-15T06:00:09.216Z,6.66
2019-05-15T06:01:09.337Z,6.74
2019-05-15T06:02:08.413Z,6.88
2019-05-15T06:03:08.825Z,6.91
2019-05-15T06:04:08.293Z,7.05
2019-05-15T06:05:08.334Z,7.20
2019-05-15T06:06:09.897Z,7.27
2019-05-15T06:07:13.817Z,7.37
2019-05-15T06:08:08.440Z,7.48
2019-05-15T06:09:09.242Z,7.58
2019-05-15T06:10:09.069Z,7.60
2019-05-15T06:11:09.759Z,7.71
2019-05-15T06:12:08.591Z,7.74
2019-05-15T06:13:08.901Z,7.89
2019-05-15T06:14:08.882Z,7.79
2019-05-15T06:15:09.114Z,7.85
2019-05-15T06:16:08.749Z,7.93
2019-05-15T06:17:08.780Z,8.01
2019-05-15T06:18:08.820Z,7.97
2019-05-15T06:19:08.854Z,8.12
2019-05-15T06:20:08.895Z,8.16
2019-05-15T06:21:09.383Z,8.10
2019-05-15T06:22:08.984Z,8.18
2019-05-15T06:23:09.013Z,8.25
2019-05-15T06:24:13.233Z,8.26
2019-05-15T06:25:11.391Z,8.34
2019-05-15T06:26:09.631Z,8.45
2019-05-15T06:27:09.158Z,8.47
2019-05-15T06:28:09.268Z,8.47
2019-05-15T06:29:09.237Z,8.58
2019-05-15T06:30:14.749Z,8.63
2019-05-15T06:31:09.322Z,8.71
2019-05-15T06:32:09.352Z,8.70
2019-05-15T06:33:13.411Z,8.74
2019-05-15T06:34:09.428Z,8.63
2019-05-15T06:35:09.480Z,8.86
2019-05-15T06:36:09.505Z,8.79
2019-05-15T06:37:09.540Z,8.86
2019-05-15T06:38:09.580Z,8.81
2019-05-15T06:39:09.643Z,8.81
2019-05-15T06:40:09.660Z,8.86
2019-05-15T06:41:09.691Z,8.83
2019-05-15T06:42:09.731Z,8.86
2019-05-15T06:43:09.767Z,8.83
2019-05-15T06:44:09.817Z,8.96
2019-05-15T06:45:09.866Z,8.91
2019-05-15T06:46:09.883Z,8.89
2019-05-15T06:47:09.920Z,8.94
2019-05-15T06:48:09.970Z,8.95
2019-05-15T06:49:10.006Z,9.02
2019-05-15T06:50:10.041Z,9.05
2019-05-15T06:51:10.083Z,9.10
2019-05-15T06:52:10.114Z,9.14
2019-05-15T06:53:10.931Z,9.18
2019-05-15T06:54:10.192Z,9.11
2019-05-15T06:55:10.230Z,9.08
2019-05-15T06:56:10.267Z,9.01
2019-05-15T06:57:10.308Z,9.05
2019-05-15T06:58:10.345Z,9.14
2019-05-15T06:59:10.386Z,9.24
2019-05-15T07:00:10.431Z,9.26
2019-05-15T07:01:10.471Z,9.21
2019-05-15T07:02:10.502Z,9.33
2019-05-15T07:03:23.754Z,9.40
2019-05-15T07:04:10.576Z,9.38
2019-05-15T07:05:10.617Z,9.33
2019-05-15T07:06:10.656Z,9.43
2019-05-15T07:07:11.268Z,9.43
2019-05-15T07:08:10.737Z,9.50
2019-05-15T07:09:10.772Z,9.50
2019-05-15T07:10:10.809Z,9.48
2019-05-15T07:11:10.846Z,9.57
2019-05-15T07:12:10.885Z,9.66
2019-05-15T07:13:10.924Z,9.65
2019-05-15T07:14:10.965Z,9.64
2019-05-15T07:15:11.003Z,9.56
2019-05-15T07:16:11.041Z,9.57
2019-05-15T07:17:11.095Z,9.54
2019-05-15T07:18:11.119Z,9.51
2019-05-15T07:19:11.158Z,9.64
2019-05-15T07:20:11.197Z,9.64
2019-05-15T07:21:11.245Z,9.71
2019-05-15T07:22:11.275Z,9.66
2019-05-15T07:23:11.314Z,9.78
2019-05-15T07:24:11.354Z,9.81
2019-05-15T07:25:11.662Z,9.68
2019-05-15T07:26:11.433Z,9.83
2019-05-15T07:27:11.470Z,9.76
2019-05-15T07:28:11.517Z,9.78
2019-05-15T07:29:11.548Z,9.87
2019-05-15T07:30:12.362Z,9.94
2019-05-15T07:31:11.828Z,9.89
2019-05-15T07:32:11.666Z,9.99
2019-05-15T07:33:11.704Z,9.93
2019-05-15T07:34:11.746Z,9.87
2019-05-15T07:35:11.779Z,9.96
2019-05-15T07:36:11.824Z,9.93
2019-05-15T07:37:11.868Z,9.96
2019-05-15T07:38:11.902Z,9.99
2019-05-15T07:39:11.936Z,10.02
2019-05-15T07:40:11.983Z,10.14
2019-05-15T07:41:12.031Z,10.09
2019-05-15T07:42:12.058Z,10.08
2019-05-15T07:43:12.094Z,10.17
2019-05-15T07:44:12.240Z,10.14
2019-05-15T07:45:12.187Z,10.17
2019-05-15T07:46:12.219Z,10.14
2019-05-15T07:47:12.249Z,10.11
2019-05-15T07:48:12.287Z,10.20
2019-05-15T07:49:12.330Z,10.14
2019-05-15T07:50:12.367Z,10.15
2019-05-15T07:51:12.407Z,10.22
2019-05-15T07:52:12.445Z,10.14
2019-05-15T07:53:12.488Z,10.09
2019-05-15T07:54:12.532Z,10.22
2019-05-15T07:55:12.570Z,10.32
2019-05-15T07:56:12.692Z,10.48
2019-05-15T07:57:12.641Z,10.60
2019-05-15T07:58:12.682Z,10.56
2019-05-15T07:59:12.719Z,10.64
2019-05-15T08:00:12.758Z,10.61
2019-05-15T08:01:12.808Z,10.67
2019-05-15T08:02:12.839Z,10.70
2019-05-15T08:03:12.876Z,10.76
2019-05-15T08:04:24.786Z,10.73
2019-05-15T08:05:12.956Z,10.73
2019-05-15T08:06:13.019Z,10.81
2019-05-15T08:07:13.033Z,10.76
2019-05-15T08:08:13.083Z,10.79
2019-05-15T08:09:13.115Z,10.82
2019-05-15T08:10:13.156Z,10.86
2019-05-15T08:11:20.896Z,10.73
2019-05-15T08:12:13.231Z,10.82
2019-05-15T08:13:13.269Z,10.85
2019-05-15T08:14:13.311Z,10.85
2019-05-15T08:15:13.349Z,11.02
2019-05-15T08:16:13.390Z,11.21
2019-05-15T08:17:13.429Z,11.27
2019-05-15T08:18:13.475Z,11.42
2019-05-15T08:19:13.509Z,11.69
2019-05-15T08:20:13.549Z,11.64
2019-05-15T08:21:13.595Z,11.70
2019-05-15T08:22:15.182Z,11.79
2019-05-15T08:23:13.669Z,11.79
2019-05-15T08:24:13.707Z,11.83
2019-05-15T08:25:28.264Z,11.83
2019-05-15T08:26:13.803Z,11.76
2019-05-15T08:27:13.833Z,11.69
2019-05-15T08:28:13.867Z,11.78
2019-05-15T08:29:13.907Z,11.83
2019-05-15T08:30:13.947Z,11.67
2019-05-15T08:31:14.011Z,11.86
2019-05-15T08:32:14.156Z,11.86
2019-05-15T08:33:14.096Z,11.85
2019-05-15T08:34:16.392Z,11.90
2019-05-15T08:35:14.149Z,11.70
2019-05-15T08:36:14.189Z,11.83
2019-05-15T08:37:14.236Z,11.79
2019-05-15T08:38:14.448Z,11.79
2019-05-15T08:39:14.309Z,11.83
2019-05-15T08:40:14.354Z,11.73
2019-05-15T08:41:15.646Z,11.88
2019-05-15T08:42:14.430Z,11.69
2019-05-15T08:43:14.469Z,11.88
2019-05-15T08:44:14.511Z,11.86
2019-05-15T08:45:14.552Z,11.82
2019-05-15T08:46:14.592Z,11.75
2019-05-15T08:47:14.630Z,11.73
2019-05-15T08:48:14.681Z,11.75
2019-05-15T08:49:14.713Z,11.73
2019-05-15T08:50:14.762Z,11.57
2019-05-15T08:51:14.792Z,11.60
2019-05-15T08:52:14.837Z,11.58
2019-05-15T08:53:14.874Z,11.57
2019-05-15T08:54:14.914Z,11.61
2019-05-15T08:55:14.956Z,11.69
2019-05-15T08:56:14.995Z,11.72
2019-05-15T08:57:15.043Z,11.80
2019-05-15T08:58:15.074Z,11.75
2019-05-15T08:59:15.114Z,11.78
2019-05-15T09:00:15.154Z,11.82
2019-05-15T09:01:15.195Z,11.80
2019-05-15T09:02:15.244Z,11.75
2019-05-15T09:03:18.104Z,11.67
2019-05-15T09:04:27.932Z,11.70
2019-05-15T09:05:15.393Z,11.72
2019-05-15T09:06:18.607Z,11.73
2019-05-15T09:07:15.438Z,11.65
2019-05-15T09:08:15.477Z,11.75
2019-05-15T09:09:18.079Z,11.80
2019-05-15T09:10:15.559Z,11.75
2019-05-15T09:11:15.615Z,11.82
2019-05-15T09:12:15.637Z,11.83
2019-05-15T09:13:15.692Z,11.75
2019-05-15T09:14:15.717Z,11.78
2019-05-15T09:15:18.309Z,11.82
2019-05-15T09:16:18.344Z,11.82
2019-05-15T09:17:18.087Z,11.85
2019-05-15T09:18:16.613Z,11.90
2019-05-15T09:19:15.917Z,12.02
2019-05-15T09:20:15.965Z,12.10
2019-05-15T09:21:16.000Z,12.05
2019-05-15T09:22:18.548Z,12.12
2019-05-15T09:23:18.822Z,12.09
2019-05-15T09:24:16.122Z,12.17
2019-05-15T09:25:16.160Z,12.17
2019-05-15T09:26:19.251Z,12.20
2019-05-15T09:27:18.345Z,12.24
2019-05-15T09:28:18.881Z,12.38
2019-05-15T09:29:18.260Z,12.38
2019-05-15T09:30:18.252Z,12.39
2019-05-15T09:31:19.034Z,12.35
2019-05-15T09:32:18.688Z,12.28
2019-05-15T09:33:19.601Z,12.34
2019-05-15T09:34:18.539Z,12.23
2019-05-15T09:35:18.589Z,12.27
2019-05-15T09:36:16.604Z,12.28
2019-05-15T09:37:18.052Z,12.17
2019-05-15T09:38:18.415Z,12.14
2019-05-15T09:39:18.310Z,12.16
2019-05-15T09:40:18.605Z,12.20
2019-05-15T09:41:17.882Z,12.16
2019-05-15T09:42:17.985Z,12.16
2019-05-15T09:43:18.203Z,12.16
2019-05-15T09:44:21.034Z,12.23
2019-05-15T09:45:18.015Z,12.32
2019-05-15T09:46:18.532Z,12.27
2019-05-15T09:47:18.882Z,12.29
2019-05-15T09:48:19.768Z,12.24
2019-05-15T09:49:18.201Z,12.21
2019-05-15T09:50:19.443Z,12.12
2019-05-15T09:51:18.292Z,12.16
2019-05-15T09:52:20.116Z,12.14
2019-05-15T09:53:18.912Z,12.32
2019-05-15T09:54:19.400Z,12.28
2019-05-15T09:55:18.039Z,12.32
2019-05-15T09:56:18.668Z,12.38
2019-05-15T09:57:18.818Z,12.35
2019-05-15T09:58:20.265Z,12.41
2019-05-15T09:59:18.619Z,12.45
2019-05-15T10:00:18.981Z,12.53
2019-05-15T10:01:19.706Z,12.35
2019-05-15T10:02:19.025Z,12.41
2019-05-15T10:03:18.952Z,12.34
2019-05-15T10:04:18.960Z,12.29
2019-05-15T10:05:18.755Z,12.23
2019-05-15T10:06:20.602Z,12.32
2019-05-15T10:07:19.286Z,12.32
2019-05-15T10:08:20.962Z,12.39
2019-05-15T10:09:18.932Z,12.39
2019-05-15T10:10:19.205Z,12.42
2019-05-15T10:11:19.694Z,12.42
2019-05-15T10:12:18.367Z,12.50
2019-05-15T10:13:18.577Z,12.53
2019-05-15T10:14:19.481Z,12.62
2019-05-15T10:15:18.727Z,12.72
2019-05-15T10:16:19.816Z,12.68
2019-05-15T10:17:18.528Z,12.62
2019-05-15T10:18:19.309Z,12.62
2019-05-15T10:19:18.721Z,12.64
2019-05-15T10:20:18.621Z,12.71
2019-05-15T10:21:18.797Z,12.79
2019-05-15T10:22:18.788Z,12.79
2019-05-15T10:23:19.821Z,12.87
2019-05-15T10:24:18.548Z,12.95
2019-05-15T10:25:19.119Z,12.96
2019-05-15T10:26:19.345Z,13.04
2019-05-15T10:27:18.668Z,13.14
2019-05-15T10:28:19.213Z,13.11
2019-05-15T10:29:18.756Z,13.03
2019-05-15T10:30:19.099Z,13.15
2019-05-15T10:31:19.556Z,13.20
2019-05-15T10:32:19.641Z,13.10
2019-05-15T10:33:20.213Z,13.12
2019-05-15T10:34:18.967Z,13.11
2019-05-15T10:35:28.248Z,13.12
2019-05-15T10:36:19.292Z,13.08
2019-05-15T10:37:19.077Z,13.10
2019-05-15T10:38:19.583Z,13.14
2019-05-15T10:39:19.211Z,13.08
2019-05-15T10:40:20.400Z,13.08
2019-05-15T10:41:19.242Z,13.23
2019-05-15T10:42:19.524Z,13.12
2019-05-15T10:43:20.491Z,13.22
2019-05-15T10:44:19.381Z,13.28
2019-05-15T10:45:19.492Z,13.28
2019-05-15T10:46:19.446Z,13.36
2019-05-15T10:47:19.485Z,13.29
2019-05-15T10:48:19.527Z,13.30
2019-05-15T10:49:19.569Z,13.38
2019-05-15T10:50:19.618Z,13.46
2019-05-15T10:51:19.892Z,13.42
2019-05-15T10:52:19.692Z,13.51
2019-05-15T10:53:19.765Z,13.51
2019-05-15T10:54:19.776Z,13.63
2019-05-15T10:55:19.817Z,13.64
2019-05-15T10:56:19.860Z,13.66
2019-05-15T10:57:19.896Z,13.70
2019-05-15T10:58:21.904Z,13.71
2019-05-15T10:59:19.981Z,13.66
2019-05-15T11:00:20.031Z,13.62
2019-05-15T11:01:20.068Z,13.70
2019-05-15T11:02:20.111Z,13.64
2019-05-15T11:03:20.298Z,13.71
2019-05-15T11:04:20.186Z,13.71
2019-05-15T11:05:20.228Z,13.89
2019-05-15T11:06:20.270Z,13.95
2019-05-15T11:07:20.312Z,14.20
2019-05-15T11:08:20.362Z,14.40
2019-05-15T11:09:20.394Z,14.54
2019-05-15T11:10:20.441Z,14.73
2019-05-15T11:11:20.482Z,15.01
2019-05-15T11:12:20.568Z,15.13
2019-05-15T11:13:20.581Z,15.32
2019-05-15T11:14:20.603Z,15.50
2019-05-15T11:15:20.644Z,15.69
2019-05-15T11:16:21.238Z,15.87
2019-05-15T11:17:20.732Z,15.82
2019-05-15T11:18:20.772Z,15.96
2019-05-15T11:19:20.811Z,15.76
2019-05-15T11:20:20.854Z,15.93
2019-05-15T11:21:20.898Z,16.02
2019-05-15T11:22:20.945Z,16.17
2019-05-15T11:23:20.982Z,16.27
2019-05-15T11:24:21.025Z,16.33
2019-05-15T11:25:21.075Z,16.21
2019-05-15T11:26:21.244Z,16.48
2019-05-15T11:27:21.155Z,16.43
2019-05-15T11:28:21.201Z,16.43
2019-05-15T11:29:21.249Z,16.64
2019-05-15T11:30:21.285Z,16.70
2019-05-15T11:31:24.363Z,16.86
2019-05-15T11:32:21.373Z,16.76
2019-05-15T11:33:21.423Z,16.91
2019-05-15T11:34:21.457Z,17.08
2019-05-15T11:35:21.507Z,17.04
2019-05-15T11:36:21.546Z,17.11
2019-05-15T11:37:21.590Z,17.23
2019-05-15T11:38:21.633Z,17.15
2019-05-15T11:39:21.695Z,17.18
2019-05-15T11:40:21.720Z,17.07
2019-05-15T11:41:21.766Z,16.86
2019-05-15T11:42:21.808Z,16.94
2019-05-15T11:43:21.852Z,16.86
2019-05-15T11:44:21.898Z,16.83
2019-05-15T11:45:22.030Z,16.79
2019-05-15T11:46:25.505Z,16.86
2019-05-15T11:47:22.040Z,16.96
2019-05-15T11:48:22.078Z,17.06
2019-05-15T11:49:22.130Z,17.12
2019-05-15T11:50:22.172Z,17.33
2019-05-15T11:51:22.207Z,17.48
2019-05-15T11:52:22.252Z,17.71
2019-05-15T11:53:22.302Z,17.92
2019-05-15T11:54:22.341Z,18.00
2019-05-15T11:55:22.393Z,18.25
2019-05-15T11:56:22.440Z,18.45
2019-05-15T11:57:37.311Z,18.57
2019-05-15T11:58:22.536Z,18.45
2019-05-15T11:59:22.569Z,18.63
2019-05-15T12:00:27.024Z,18.48
2019-05-15T12:01:22.668Z,18.52
2019-05-15T12:02:22.707Z,18.36
2019-05-15T12:03:24.934Z,18.29
2019-05-15T12:04:30.458Z,17.99
2019-05-15T12:05:22.837Z,18.17
2019-05-15T12:06:23.228Z,18.30
2019-05-15T12:07:22.933Z,18.29
2019-05-15T12:08:22.973Z,18.05
2019-05-15T12:09:23.019Z,17.82
2019-05-15T12:10:23.064Z,17.68
2019-05-15T12:11:33.477Z,17.62
2019-05-15T12:12:23.169Z,17.52
2019-05-15T12:13:23.201Z,17.55
2019-05-15T12:14:23.250Z,17.62
2019-05-15T12:15:23.298Z,17.84
2019-05-15T12:16:23.340Z,17.92
2019-05-15T12:17:23.382Z,17.96
2019-05-15T12:18:23.426Z,18.10
2019-05-15T12:19:23.484Z,17.89
2019-05-15T12:20:23.521Z,17.87
2019-05-15T12:21:23.564Z,17.59
2019-05-15T12:22:23.619Z,17.64
2019-05-15T12:23:23.660Z,17.82
2019-05-15T12:24:31.465Z,17.62
2019-05-15T12:25:28.501Z,17.66
2019-05-15T12:26:23.791Z,17.77
2019-05-15T12:27:23.841Z,17.75
2019-05-15T12:28:23.884Z,17.90
2019-05-15T12:29:23.928Z,17.97
2019-05-15T12:30:23.974Z,17.93
2019-05-15T12:31:24.837Z,17.97
2019-05-15T12:33:24.108Z,17.96
2019-05-15T12:34:24.154Z,17.90
2019-05-15T12:35:24.198Z,17.93
2019-05-15T12:37:24.291Z,17.95
2019-05-15T12:37:59.046Z,17.93
2019-05-15T12:38:24.345Z,17.86
2019-05-15T12:39:29.435Z,17.87
2019-05-15T12:59:41.001Z,17.63
2019-05-15T13:00:25.333Z,17.52
2019-05-15T13:01:25.388Z,17.48
2019-05-15T13:02:25.435Z,17.48
2019-05-15T13:03:25.477Z,17.52
2019-05-15T13:04:25.523Z,17.64
2019-05-15T13:05:28.536Z,17.52
2019-05-15T13:06:28.303Z,17.66
2019-05-15T13:07:25.655Z,17.58
2019-05-15T13:08:25.713Z,17.41
2019-05-15T13:09:27.635Z,17.30
2019-05-15T13:10:25.798Z,17.11
2019-05-15T13:11:25.836Z,17.15
2019-05-15T13:12:25.886Z,17.01
2019-05-15T13:13:28.178Z,17.14
2019-05-15T13:14:28.189Z,17.16
2019-05-15T13:15:28.200Z,17.16
2019-05-15T13:16:28.141Z,17.22
2019-05-15T13:17:26.114Z,17.40
2019-05-15T13:18:28.447Z,17.68
2019-05-15T13:19:28.475Z,17.62
2019-05-15T13:20:28.646Z,17.52
2019-05-15T13:21:26.293Z,17.51
2019-05-15T13:22:28.121Z,17.34
2019-05-15T13:23:28.440Z,17.15
2019-05-15T13:24:28.419Z,17.33
2019-05-15T13:25:27.990Z,17.26
2019-05-15T13:26:27.087Z,17.43
2019-05-15T13:27:26.570Z,17.63
2019-05-15T13:28:28.794Z,17.70